sensor_id;sensor_type;location;lat;lon;timestamp;pressure;altitude;pressure_sealevel;temperature;humidity
11212;BME280;5663;50.864;12.096;2022-10-22T00:00:54;98953.84;;;13.99;86.43
11212;BME280;5663;50.864;12.096;2022-10-22T00:03:22;98946.97;;;13.98;86.62
11212;BME280;5663;50.864;12.096;2022-10-22T00:05:49;98951.97;;;14.01;86.60
11212;BME280;5663;50.864;12.096;2022-10-22T00:08:17;98943.19;;;14.02;86.85
11212;BME280;5663;50.864;12.096;2022-10-22T00:10:45;98951.84;;;14.02;86.90
11212;BME280;5663;50.864;12.096;2022-10-22T00:13:13;98956.13;;;14.03;86.91
11212;BME280;5663;50.864;12.096;2022-10-22T00:15:41;98965.56;;;14.06;87.03
11212;BME280;5663;50.864;12.096;2022-10-22T00:18:10;98958.41;;;14.08;86.93
11212;BME280;5663;50.864;12.096;2022-10-22T00:20:38;98974.84;;;14.10;87.22
11212;BME280;5663;50.864;12.096;2022-10-22T00:23:06;98951.56;;;13.94;87.38
11212;BME280;5663;50.864;12.096;2022-10-22T00:25:34;98972.00;;;14.13;87.38
11212;BME280;5663;50.864;12.096;2022-10-22T00:28:02;98952.25;;;14.09;87.46
11212;BME280;5663;50.864;12.096;2022-10-22T00:30:30;98950.06;;;14.03;87.37
11212;BME280;5663;50.864;12.096;2022-10-22T00:32:58;98974.28;;;14.18;87.66
11212;BME280;5663;50.864;12.096;2022-10-22T00:35:27;98980.25;;;14.20;87.68
11212;BME280;5663;50.864;12.096;2022-10-22T00:37:55;98976.56;;;14.22;87.60
11212;BME280;5663;50.864;12.096;2022-10-22T00:40:23;98973.00;;;14.23;87.52
11212;BME280;5663;50.864;12.096;2022-10-22T00:42:52;98975.53;;;14.25;87.65
11212;BME280;5663;50.864;12.096;2022-10-22T00:45:50;98972.78;;;14.26;88.00
11212;BME280;5663;50.864;12.096;2022-10-22T00:48:22;98977.06;;;14.27;87.86
11212;BME280;5663;50.864;12.096;2022-10-22T00:50:55;98980.63;;;14.26;87.67
11212;BME280;5663;50.864;12.096;2022-10-22T00:53:29;98987.66;;;14.26;87.71
11212;BME280;5663;50.864;12.096;2022-10-22T00:55:58;98976.38;;;14.25;87.63
11212;BME280;5663;50.864;12.096;2022-10-22T00:58:27;98972.78;;;14.26;87.86
11212;BME280;5663;50.864;12.096;2022-10-22T01:00:56;98961.09;;;14.19;88.10
11212;BME280;5663;50.864;12.096;2022-10-22T01:03:24;98969.22;;;14.27;88.21
11212;BME280;5663;50.864;12.096;2022-10-22T01:05:56;98946.69;;;14.14;88.09
11212;BME280;5663;50.864;12.096;2022-10-22T01:08:27;98973.63;;;14.27;88.07
11212;BME280;5663;50.864;12.096;2022-10-22T01:11:07;98975.19;;;14.29;87.93
11212;BME280;5663;50.864;12.096;2022-10-22T01:13:47;98965.69;;;14.28;87.64
11212;BME280;5663;50.864;12.096;2022-10-22T01:16:28;98960.44;;;14.28;88.03
11212;BME280;5663;50.864;12.096;2022-10-22T01:19:04;98980.50;;;14.28;87.81
11212;BME280;5663;50.864;12.096;2022-10-22T01:21:41;98990.16;;;14.27;87.52
11212;BME280;5663;50.864;12.096;2022-10-22T01:24:30;98974.44;;;14.27;87.16
11212;BME280;5663;50.864;12.096;2022-10-22T01:27:19;98977.19;;;14.26;87.20
11212;BME280;5663;50.864;12.096;2022-10-22T01:29:54;98971.13;;;14.25;86.98
11212;BME280;5663;50.864;12.096;2022-10-22T01:32:25;98967.56;;;14.26;87.01
11212;BME280;5663;50.864;12.096;2022-10-22T01:34:57;98962.31;;;14.26;86.89
11212;BME280;5663;50.864;12.096;2022-10-22T01:37:29;98963.38;;;14.24;86.96
11212;BME280;5663;50.864;12.096;2022-10-22T01:39:59;98966.59;;;14.27;87.00
11212;BME280;5663;50.864;12.096;2022-10-22T01:42:28;98969.97;;;14.29;87.24
11212;BME280;5663;50.864;12.096;2022-10-22T01:44:57;98966.38;;;14.30;87.80
11212;BME280;5663;50.864;12.096;2022-10-22T01:47:35;98974.03;;;14.34;87.88
11212;BME280;5663;50.864;12.096;2022-10-22T01:50:21;98936.25;;;14.14;87.93
11212;BME280;5663;50.864;12.096;2022-10-22T01:53:08;98967.50;;;14.39;88.09
11212;BME280;5663;50.864;12.096;2022-10-22T01:55:48;98933.16;;;14.20;88.09
11212;BME280;5663;50.864;12.096;2022-10-22T01:58:28;98920.69;;;14.23;88.35
11212;BME280;5663;50.864;12.096;2022-10-22T02:01:06;98953.03;;;14.46;88.41
11212;BME280;5663;50.864;12.096;2022-10-22T02:03:40;98947.59;;;14.49;88.67
11212;BME280;5663;50.864;12.096;2022-10-22T02:06:13;98955.09;;;14.54;88.65
11212;BME280;5663;50.864;12.096;2022-10-22T02:08:44;98949.66;;;14.57;88.47
11212;BME280;5663;50.864;12.096;2022-10-22T02:11:14;98946.09;;;14.58;88.67
11212;BME280;5663;50.864;12.096;2022-10-22T02:13:44;98942.50;;;14.59;88.81
11212;BME280;5663;50.864;12.096;2022-10-22T02:16:17;98909.09;;;14.39;89.00
11212;BME280;5663;50.864;12.096;2022-10-22T02:18:47;98942.06;;;14.65;88.91
11212;BME280;5663;50.864;12.096;2022-10-22T02:21:16;98939.31;;;14.67;88.78
11212;BME280;5663;50.864;12.096;2022-10-22T02:23:44;98926.13;;;14.68;88.92
11212;BME280;5663;50.864;12.096;2022-10-22T02:26:16;98927.81;;;14.69;88.82
11212;BME280;5663;50.864;12.096;2022-10-22T02:28:51;98919.00;;;14.70;88.75
11212;BME280;5663;50.864;12.096;2022-10-22T02:31:27;98920.66;;;14.71;89.02
11212;BME280;5663;50.864;12.096;2022-10-22T02:33:57;98908.41;;;14.72;88.93
11212;BME280;5663;50.864;12.096;2022-10-22T02:36:30;98911.88;;;14.72;88.86
11212;BME280;5663;50.864;12.096;2022-10-22T02:39:01;98911.00;;;14.72;88.91
11212;BME280;5663;50.864;12.096;2022-10-22T02:41:29;98919.00;;;14.70;88.96
11212;BME280;5663;50.864;12.096;2022-10-22T02:44:23;98923.19;;;14.73;88.69
11212;BME280;5663;50.864;12.096;2022-10-22T02:47:04;98919.00;;;14.70;88.49
11212;BME280;5663;50.864;12.096;2022-10-22T02:49:32;98912.09;;;14.69;88.56
11212;BME280;5663;50.864;12.096;2022-10-22T02:52:00;98912.09;;;14.69;88.50
11212;BME280;5663;50.864;12.096;2022-10-22T02:54:28;98922.56;;;14.69;88.69
11212;BME280;5663;50.864;12.096;2022-10-22T02:56:55;98931.25;;;14.70;88.60
11212;BME280;5663;50.864;12.096;2022-10-22T02:59:23;98939.94;;;14.70;88.34
11212;BME280;5663;50.864;12.096;2022-10-22T03:01:52;98942.69;;;14.69;88.30
11212;BME280;5663;50.864;12.096;2022-10-22T03:04:21;98953.97;;;14.69;88.22
11212;BME280;5663;50.864;12.096;2022-10-22T03:06:49;98957.56;;;14.68;87.94
11212;BME280;5663;50.864;12.096;2022-10-22T03:09:17;98950.00;;;14.64;87.87
11212;BME280;5663;50.864;12.096;2022-10-22T03:11:44;98958.47;;;14.67;88.03
11212;BME280;5663;50.864;12.096;2022-10-22T03:14:12;98960.38;;;14.65;87.84
11212;BME280;5663;50.864;12.096;2022-10-22T03:16:42;98963.97;;;14.64;87.86
11212;BME280;5663;50.864;12.096;2022-10-22T03:19:10;98961.34;;;14.64;87.49
11212;BME280;5663;50.864;12.096;2022-10-22T03:21:42;98959.66;;;14.63;87.69
11212;BME280;5663;50.864;12.096;2022-10-22T03:24:12;98954.41;;;14.63;87.64
11212;BME280;5663;50.864;12.096;2022-10-22T03:26:42;98947.53;;;14.62;87.32
11212;BME280;5663;50.864;12.096;2022-10-22T03:29:13;98952.75;;;14.62;87.21
11212;BME280;5663;50.864;12.096;2022-10-22T03:31:42;98950.97;;;14.63;87.25
11212;BME280;5663;50.864;12.096;2022-10-22T03:34:09;98947.53;;;14.62;87.13
11212;BME280;5663;50.864;12.096;2022-10-22T03:36:40;98944.19;;;14.60;86.94
11212;BME280;5663;50.864;12.096;2022-10-22T03:39:09;98945.03;;;14.61;86.80
11212;BME280;5663;50.864;12.096;2022-10-22T03:41:38;98931.22;;;14.59;86.89
11212;BME280;5663;50.864;12.096;2022-10-22T03:44:06;98928.72;;;14.57;87.14
11212;BME280;5663;50.864;12.096;2022-10-22T03:46:35;98934.19;;;14.54;87.20
11212;BME280;5663;50.864;12.096;2022-10-22T03:49:03;98937.75;;;14.53;87.38
11212;BME280;5663;50.864;12.096;2022-10-22T03:51:33;98937.97;;;14.50;87.29
11212;BME280;5663;50.864;12.096;2022-10-22T03:54:03;98913.03;;;14.33;87.42
11212;BME280;5663;50.864;12.096;2022-10-22T03:56:31;98938.84;;;14.38;87.39
11212;BME280;5663;50.864;12.096;2022-10-22T03:59:00;98944.22;;;14.47;86.91
11212;BME280;5663;50.864;12.096;2022-10-22T04:01:28;98952.31;;;14.44;86.84
11212;BME280;5663;50.864;12.096;2022-10-22T04:03:57;98959.31;;;14.44;86.80
11212;BME280;5663;50.864;12.096;2022-10-22T04:06:24;98946.34;;;14.42;86.70
11212;BME280;5663;50.864;12.096;2022-10-22T04:08:52;98957.88;;;14.40;86.37
11212;BME280;5663;50.864;12.096;2022-10-22T04:11:23;98972.84;;;14.38;85.99
11212;BME280;5663;50.864;12.096;2022-10-22T04:13:51;98979.97;;;14.36;86.01
11212;BME280;5663;50.864;12.096;2022-10-22T04:16:20;98983.53;;;14.35;85.84
11212;BME280;5663;50.864;12.096;2022-10-22T04:18:49;98986.38;;;14.32;85.72
11212;BME280;5663;50.864;12.096;2022-10-22T04:21:18;98990.38;;;14.24;85.79
11212;BME280;5663;50.864;12.096;2022-10-22T04:23:47;98997.06;;;14.28;85.71
11212;BME280;5663;50.864;12.096;2022-10-22T04:26:15;98983.41;;;14.12;85.83
11212;BME280;5663;50.864;12.096;2022-10-22T04:28:46;98993.94;;;14.23;86.03
11212;BME280;5663;50.864;12.096;2022-10-22T04:31:16;98988.94;;;14.20;86.25
11212;BME280;5663;50.864;12.096;2022-10-22T04:33:44;98991.44;;;14.22;86.40
11212;BME280;5663;50.864;12.096;2022-10-22T04:36:14;98970.56;;;14.09;86.54
11212;BME280;5663;50.864;12.096;2022-10-22T04:38:43;98972.56;;;14.05;86.83
11212;BME280;5663;50.864;12.096;2022-10-22T04:41:12;98986.63;;;14.16;86.96
11212;BME280;5663;50.864;12.096;2022-10-22T04:43:41;98979.94;;;14.12;87.37
11212;BME280;5663;50.864;12.096;2022-10-22T04:46:13;98983.94;;;14.17;87.47
11212;BME280;5663;50.864;12.096;2022-10-22T04:48:43;98984.75;;;14.18;87.50
11212;BME280;5663;50.864;12.096;2022-10-22T04:51:13;98984.75;;;14.18;87.79
11212;BME280;5663;50.864;12.096;2022-10-22T04:53:41;98996.78;;;14.20;88.10
11212;BME280;5663;50.864;12.096;2022-10-22T04:56:10;98994.06;;;14.22;88.69
11212;BME280;5663;50.864;12.096;2022-10-22T04:58:38;98987.78;;;14.24;88.50
11212;BME280;5663;50.864;12.096;2022-10-22T05:01:11;98984.09;;;14.27;88.64
11212;BME280;5663;50.864;12.096;2022-10-22T05:03:42;98985.66;;;14.29;88.47
11212;BME280;5663;50.864;12.096;2022-10-22T05:06:10;98989.72;;;14.34;88.61
11212;BME280;5663;50.864;12.096;2022-10-22T05:08:39;98990.44;;;14.36;88.62
11212;BME280;5663;50.864;12.096;2022-10-22T05:11:12;98991.16;;;14.38;88.70
11212;BME280;5663;50.864;12.096;2022-10-22T05:13:40;98982.22;;;14.29;88.67
11212;BME280;5663;50.864;12.096;2022-10-22T05:16:10;99001.41;;;14.41;88.99
11212;BME280;5663;50.864;12.096;2022-10-22T05:18:40;99005.69;;;14.42;89.15
11212;BME280;5663;50.864;12.096;2022-10-22T05:21:10;99011.63;;;14.44;89.12
11212;BME280;5663;50.864;12.096;2022-10-22T05:23:42;99006.41;;;14.44;89.05
11212;BME280;5663;50.864;12.096;2022-10-22T05:26:12;99007.13;;;14.46;89.04
11212;BME280;5663;50.864;12.096;2022-10-22T05:28:45;99007.84;;;14.48;89.09
11212;BME280;5663;50.864;12.096;2022-10-22T05:31:20;99012.19;;;14.49;89.41
11212;BME280;5663;50.864;12.096;2022-10-22T05:33:52;99020.75;;;14.51;89.39
11212;BME280;5663;50.864;12.096;2022-10-22T05:36:24;98993.03;;;14.36;89.37
11212;BME280;5663;50.864;12.096;2022-10-22T05:39:22;99026.47;;;14.56;89.38
11212;BME280;5663;50.864;12.096;2022-10-22T06:05:18;99046.06;;;14.74;89.60
11212;BME280;5663;50.864;12.096;2022-10-22T06:08:23;99065.06;;;14.89;90.79
11212;BME280;5663;50.864;12.096;2022-10-22T06:11:00;99055.88;;;14.84;90.78
11212;BME280;5663;50.864;12.096;2022-10-22T06:13:39;99086.69;;;15.04;90.99
11212;BME280;5663;50.864;12.096;2022-10-22T06:20:05;99110.53;;;15.23;91.14
11212;BME280;5663;50.864;12.096;2022-10-22T06:23:13;99117.13;;;15.29;91.09
11212;BME280;5663;50.864;12.096;2022-10-22T06:26:20;99121.19;;;15.33;91.13
11212;BME280;5663;50.864;12.096;2022-10-22T06:28:58;99113.19;;;15.35;90.96
11212;BME280;5663;50.864;12.096;2022-10-22T06:31:28;99120.97;;;15.36;91.15
11212;BME280;5663;50.864;12.096;2022-10-22T06:34:22;99120.72;;;15.39;91.03
11212;BME280;5663;50.864;12.096;2022-10-22T06:48:13;99138.72;;;15.44;91.74
11212;BME280;5663;50.864;12.096;2022-10-22T06:50:43;99143.72;;;15.47;91.65
11212;BME280;5663;50.864;12.096;2022-10-22T06:53:14;99150.66;;;15.48;92.05
11212;BME280;5663;50.864;12.096;2022-10-22T06:55:42;99145.41;;;15.48;92.19
11212;BME280;5663;50.864;12.096;2022-10-22T06:58:11;99151.38;;;15.50;92.37
11212;BME280;5663;50.864;12.096;2022-10-22T07:00:42;99152.09;;;15.52;92.17
11212;BME280;5663;50.864;12.096;2022-10-22T07:03:22;99153.75;;;15.53;92.24
11212;BME280;5663;50.864;12.096;2022-10-22T07:05:51;99164.84;;;15.57;91.95
11212;BME280;5663;50.864;12.096;2022-10-22T07:08:36;99164.72;;;15.58;91.96
11212;BME280;5663;50.864;12.096;2022-10-22T07:11:08;99174.25;;;15.59;91.83
11212;BME280;5663;50.864;12.096;2022-10-22T07:13:43;99177.13;;;15.56;92.00
11212;BME280;5663;50.864;12.096;2022-10-22T07:16:31;99186.19;;;15.52;92.29
11212;BME280;5663;50.864;12.096;2022-10-22T07:19:12;99181.16;;;15.49;92.70
11212;BME280;5663;50.864;12.096;2022-10-22T07:21:41;99188.06;;;15.50;92.86
11212;BME280;5663;50.864;12.096;2022-10-22T07:24:09;99188.06;;;15.50;93.05
11212;BME280;5663;50.864;12.096;2022-10-22T07:26:41;99197.59;;;15.51;93.23
11212;BME280;5663;50.864;12.096;2022-10-22T07:32:09;99198.19;;;15.55;93.26
11212;BME280;5663;50.864;12.096;2022-10-22T07:34:40;99193.56;;;15.58;92.96
11212;BME280;5663;50.864;12.096;2022-10-22T07:37:09;99163.03;;;15.46;92.70
11212;BME280;5663;50.864;12.096;2022-10-22T07:39:43;99185.16;;;15.66;92.65
11212;BME280;5663;50.864;12.096;2022-10-22T07:42:13;99200.53;;;15.70;92.26
11212;BME280;5663;50.864;12.096;2022-10-22T07:44:42;99188.53;;;15.68;91.95
11212;BME280;5663;50.864;12.096;2022-10-22T07:47:15;99207.72;;;15.80;91.69
11212;BME280;5663;50.864;12.096;2022-10-22T07:49:52;99201.41;;;15.82;91.41
11212;BME280;5663;50.864;12.096;2022-10-22T07:52:25;99202.72;;;15.88;91.22
11212;BME280;5663;50.864;12.096;2022-10-22T07:54:56;99190.69;;;15.85;90.99
11212;BME280;5663;50.864;12.096;2022-10-22T07:57:24;99205.84;;;15.93;90.86
11212;BME280;5663;50.864;12.096;2022-10-22T07:59:56;99199.53;;;15.95;90.89
11212;BME280;5663;50.864;12.096;2022-10-22T08:02:29;99198.59;;;15.96;90.82
11212;BME280;5663;50.864;12.096;2022-10-22T08:05:06;99200.88;;;16.01;91.11
11212;BME280;5663;50.864;12.096;2022-10-22T08:07:39;99194.53;;;16.04;90.93
11212;BME280;5663;50.864;12.096;2022-10-22T08:10:14;99197.75;;;16.07;90.90
11212;BME280;5663;50.864;12.096;2022-10-22T08:12:45;99198.50;;;16.09;90.69
11212;BME280;5663;50.864;12.096;2022-10-22T08:15:13;99202.91;;;16.09;90.57
11212;BME280;5663;50.864;12.096;2022-10-22T08:17:42;99205.63;;;16.07;90.79
11212;BME280;5663;50.864;12.096;2022-10-22T08:20:12;99188.47;;;15.92;90.80
11212;BME280;5663;50.864;12.096;2022-10-22T08:22:44;99230.44;;;16.14;90.87
11212;BME280;5663;50.864;12.096;2022-10-22T08:25:17;99230.94;;;16.19;90.73
11212;BME280;5663;50.864;12.096;2022-10-22T08:27:51;99218.41;;;16.23;90.74
11212;BME280;5663;50.864;12.096;2022-10-22T08:30:19;99214.50;;;16.29;90.64
11212;BME280;5663;50.864;12.096;2022-10-22T08:32:48;99214.00;;;16.35;90.65
11212;BME280;5663;50.864;12.096;2022-10-22T08:35:25;99201.13;;;16.43;90.78
11212;BME280;5663;50.864;12.096;2022-10-22T08:37:56;99195.19;;;16.52;90.69
11212;BME280;5663;50.864;12.096;2022-10-22T08:40:29;99175.84;;;16.53;90.61
11212;BME280;5663;50.864;12.096;2022-10-22T08:43:31;99174.88;;;16.65;90.30
11212;BME280;5663;50.864;12.096;2022-10-22T08:46:16;99175.47;;;16.69;90.45
11212;BME280;5663;50.864;12.096;2022-10-22T08:48:51;99179.41;;;16.74;90.24
11212;BME280;5663;50.864;12.096;2022-10-22T08:51:25;99155.91;;;16.62;89.97
11212;BME280;5663;50.864;12.096;2022-10-22T08:57:03;99193.97;;;16.90;89.47
11212;BME280;5663;50.864;12.096;2022-10-22T08:59:44;99193.00;;;16.91;88.92
11212;BME280;5663;50.864;12.096;2022-10-22T09:02:24;99197.31;;;16.92;89.18
11212;BME280;5663;50.864;12.096;2022-10-22T09:05:03;99194.56;;;16.93;89.08
11212;BME280;5663;50.864;12.096;2022-10-22T09:07:42;99235.63;;;16.94;89.03
11212;BME280;5663;50.864;12.096;2022-10-22T09:10:17;99240.88;;;16.83;88.48
11212;BME280;5663;50.864;12.096;2022-10-22T09:12:47;99245.81;;;16.88;88.24
11212;BME280;5663;50.864;12.096;2022-10-22T09:15:20;99245.81;;;16.88;88.27
11212;BME280;5663;50.864;12.096;2022-10-22T09:18:04;99238.03;;;16.75;88.37
11212;BME280;5663;50.864;12.096;2022-10-22T09:20:39;99234.09;;;16.92;88.03
11212;BME280;5663;50.864;12.096;2022-10-22T09:23:22;99257.47;;;16.95;87.93
11212;BME280;5663;50.864;12.096;2022-10-22T09:25:56;99254.84;;;16.95;87.54
11212;BME280;5663;50.864;12.096;2022-10-22T09:28:26;99240.19;;;16.92;87.51
11212;BME280;5663;50.864;12.096;2022-10-22T09:30:57;99192.78;;;16.60;87.32
11212;BME280;5663;50.864;12.096;2022-10-22T09:33:27;99204.44;;;16.67;86.98
11212;BME280;5663;50.864;12.096;2022-10-22T09:36:02;99240.78;;;16.85;87.09
11212;BME280;5663;50.864;12.096;2022-10-22T09:38:39;99239.81;;;16.86;87.49
11212;BME280;5663;50.864;12.096;2022-10-22T09:41:08;99233.88;;;16.84;87.33
11212;BME280;5663;50.864;12.096;2022-10-22T09:43:36;99238.97;;;16.85;87.20
11212;BME280;5663;50.864;12.096;2022-10-22T09:46:15;99243.16;;;16.88;87.30
11212;BME280;5663;50.864;12.096;2022-10-22T09:48:47;99209.72;;;16.67;87.16
11212;BME280;5663;50.864;12.096;2022-10-22T09:51:20;99251.75;;;16.90;87.40
11212;BME280;5663;50.864;12.096;2022-10-22T09:53:56;99245.44;;;16.92;87.55
11212;BME280;5663;50.864;12.096;2022-10-22T09:56:26;99218.44;;;16.79;87.56
11212;BME280;5663;50.864;12.096;2022-10-22T09:58:57;99219.41;;;16.78;87.71
11212;BME280;5663;50.864;12.096;2022-10-22T10:01:29;99251.75;;;17.01;87.38
11212;BME280;5663;50.864;12.096;2022-10-22T10:04:02;99266.31;;;17.05;87.44
11212;BME280;5663;50.864;12.096;2022-10-22T10:06:51;99254.81;;;17.06;87.84
11212;BME280;5663;50.864;12.096;2022-10-22T10:09:25;99257.22;;;17.09;87.94
11212;BME280;5663;50.864;12.096;2022-10-22T10:12:00;99256.97;;;17.12;88.02
11212;BME280;5663;50.864;12.096;2022-10-22T10:14:37;99257.56;;;17.16;88.38
11212;BME280;5663;50.864;12.096;2022-10-22T10:17:14;99245.03;;;17.08;88.60
11212;BME280;5663;50.864;12.096;2022-10-22T10:19:58;99253.16;;;17.16;89.12
11212;BME280;5663;50.864;12.096;2022-10-22T10:22:40;99254.44;;;17.22;89.22
11212;BME280;5663;50.864;12.096;2022-10-22T10:25:45;99259.59;;;17.23;89.48
11212;BME280;5663;50.864;12.096;2022-10-22T10:31:16;99253.81;;;17.30;88.80
11212;BME280;5663;50.864;12.096;2022-10-22T10:33:54;99244.28;;;17.29;88.39
11212;BME280;5663;50.864;12.096;2022-10-22T10:36:34;99237.47;;;17.26;88.02
11212;BME280;5663;50.864;12.096;2022-10-22T10:39:10;99224.47;;;17.24;87.72
11212;BME280;5663;50.864;12.096;2022-10-22T10:41:49;99252.34;;;17.48;87.29
11212;BME280;5663;50.864;12.096;2022-10-22T10:47:27;99259.03;;;17.52;86.28
11212;BME280;5663;50.864;12.096;2022-10-22T10:50:15;99260.44;;;17.56;85.94
11212;BME280;5663;50.864;12.096;2022-10-22T10:52:58;99257.28;;;17.62;85.80
11212;BME280;5663;50.864;12.096;2022-10-22T10:55:31;99249.59;;;17.70;85.78
11212;BME280;5663;50.864;12.096;2022-10-22T10:58:13;99254.84;;;17.82;85.43
11212;BME280;5663;50.864;12.096;2022-10-22T11:00:51;99262.69;;;17.93;85.51
11212;BME280;5663;50.864;12.096;2022-10-22T11:03:46;99265.28;;;18.04;85.40
11212;BME280;5663;50.864;12.096;2022-10-22T11:06:21;99260.91;;;18.14;84.85
11212;BME280;5663;50.864;12.096;2022-10-22T11:08:53;99265.41;;;18.24;84.26
11212;BME280;5663;50.864;12.096;2022-10-22T11:11:31;99263.41;;;18.37;84.04
11212;BME280;5663;50.864;12.096;2022-10-22T11:14:09;99264.97;;;18.49;83.77
11212;BME280;5663;50.864;12.096;2022-10-22T11:16:50;99276.28;;;18.61;83.26
11212;BME280;5663;50.864;12.096;2022-10-22T11:19:25;99268.69;;;18.67;82.89
11212;BME280;5663;50.864;12.096;2022-10-22T11:22:00;99258.97;;;18.68;82.30
11212;BME280;5663;50.864;12.096;2022-10-22T11:24:36;99272.63;;;18.83;82.18
11212;BME280;5663;50.864;12.096;2022-10-22T11:27:21;99268.91;;;18.85;81.80
11212;BME280;5663;50.864;12.096;2022-10-22T11:29:56;99262.97;;;18.93;80.90
11212;BME280;5663;50.864;12.096;2022-10-22T11:32:26;99273.28;;;19.06;79.87
11212;BME280;5663;50.864;12.096;2022-10-22T11:34:56;99273.00;;;19.09;79.00
11212;BME280;5663;50.864;12.096;2022-10-22T11:37:29;99269.28;;;19.11;78.35
11212;BME280;5663;50.864;12.096;2022-10-22T11:40:05;99269.97;;;19.13;78.02
11212;BME280;5663;50.864;12.096;2022-10-22T11:42:36;99276.31;;;19.11;77.68
11212;BME280;5663;50.864;12.096;2022-10-22T11:45:27;99273.84;;;19.09;77.48
11212;BME280;5663;50.864;12.096;2022-10-22T11:48:04;99277.44;;;19.08;78.00
11212;BME280;5663;50.864;12.096;2022-10-22T11:50:49;99254.81;;;18.96;76.92
11212;BME280;5663;50.864;12.096;2022-10-22T11:53:27;99263.13;;;19.01;76.90
11212;BME280;5663;50.864;12.096;2022-10-22T11:55:57;99271.06;;;19.11;76.51
11212;BME280;5663;50.864;12.096;2022-10-22T11:58:34;99275.50;;;19.10;75.67
11212;BME280;5663;50.864;12.096;2022-10-22T12:01:40;99270.78;;;19.14;75.17
11212;BME280;5663;50.864;12.096;2022-10-22T12:04:18;99256.88;;;19.02;74.55
11212;BME280;5663;50.864;12.096;2022-10-22T12:06:58;99276.91;;;19.14;74.32
11212;BME280;5663;50.864;12.096;2022-10-22T12:09:28;99272.34;;;19.16;74.85
11212;BME280;5663;50.864;12.096;2022-10-22T12:12:12;99278.03;;;19.22;76.08
11212;BME280;5663;50.864;12.096;2022-10-22T12:14:52;99274.16;;;19.26;75.42
11212;BME280;5663;50.864;12.096;2022-10-22T12:17:24;99281.09;;;19.27;75.06
11212;BME280;5663;50.864;12.096;2022-10-22T12:19:59;99254.28;;;19.12;74.74
11212;BME280;5663;50.864;12.096;2022-10-22T12:22:28;99284.44;;;19.29;74.35
11212;BME280;5663;50.864;12.096;2022-10-22T12:25:01;99279.84;;;19.31;74.25
11212;BME280;5663;50.864;12.096;2022-10-22T12:27:34;99273.47;;;19.33;73.29
11212;BME280;5663;50.864;12.096;2022-10-22T12:30:17;99275.44;;;19.41;73.53
11212;BME280;5663;50.864;12.096;2022-10-22T12:32:50;99273.34;;;19.44;73.04
11212;BME280;5663;50.864;12.096;2022-10-22T12:35:20;99273.66;;;19.51;73.43
11212;BME280;5663;50.864;12.096;2022-10-22T12:37:49;99268.91;;;19.55;73.60
11212;BME280;5663;50.864;12.096;2022-10-22T12:40:19;99272.59;;;19.63;73.11
11212;BME280;5663;50.864;12.096;2022-10-22T12:42:50;99268.28;;;19.72;73.22
11212;BME280;5663;50.864;12.096;2022-10-22T12:45:19;99269.25;;;19.81;72.99
11212;BME280;5663;50.864;12.096;2022-10-22T12:47:50;99243.97;;;19.68;72.57
11212;BME280;5663;50.864;12.096;2022-10-22T12:50:22;99272.59;;;19.83;72.67
11212;BME280;5663;50.864;12.096;2022-10-22T12:52:54;99270.22;;;19.80;71.77
11212;BME280;5663;50.864;12.096;2022-10-22T12:55:22;99273.41;;;19.74;71.43
11212;BME280;5663;50.864;12.096;2022-10-22T12:57:53;99270.34;;;19.68;70.97
11212;BME280;5663;50.864;12.096;2022-10-22T13:00:23;99277.84;;;19.63;71.43
11212;BME280;5663;50.864;12.096;2022-10-22T13:02:55;99273.09;;;19.57;70.64
11212;BME280;5663;50.864;12.096;2022-10-22T13:05:30;99278.94;;;19.51;69.66
11212;BME280;5663;50.864;12.096;2022-10-22T13:08:16;99273.34;;;19.44;69.99
11212;BME280;5663;50.864;12.096;2022-10-22T13:10:52;99264.47;;;19.36;70.50
11212;BME280;5663;50.864;12.096;2022-10-22T13:13:32;99275.59;;;19.39;70.39
11212;BME280;5663;50.864;12.096;2022-10-22T13:16:16;99278.91;;;19.41;69.73
11212;BME280;5663;50.864;12.096;2022-10-22T13:18:47;99281.69;;;19.40;69.62
11212;BME280;5663;50.864;12.096;2022-10-22T13:21:28;99279.31;;;19.37;69.66
11212;BME280;5663;50.864;12.096;2022-10-22T13:23:58;99277.22;;;19.31;69.67
11212;BME280;5663;50.864;12.096;2022-10-22T13:26:31;99289.59;;;19.40;69.66
11212;BME280;5663;50.864;12.096;2022-10-22T13:29:00;99279.72;;;19.42;69.97
11212;BME280;5663;50.864;12.096;2022-10-22T13:31:30;99253.78;;;19.28;69.87
11212;BME280;5663;50.864;12.096;2022-10-22T13:34:02;99285.44;;;19.47;69.41
11212;BME280;5663;50.864;12.096;2022-10-22T13:36:31;99284.22;;;19.51;69.52
11212;BME280;5663;50.864;12.096;2022-10-22T13:39:00;99289.19;;;19.54;69.65
11212;BME280;5663;50.864;12.096;2022-10-22T13:41:30;99282.97;;;19.55;69.38
11212;BME280;5663;50.864;12.096;2022-10-22T13:43:59;99290.00;;;19.55;67.96
11212;BME280;5663;50.864;12.096;2022-10-22T13:46:27;99287.25;;;19.56;68.02
11212;BME280;5663;50.864;12.096;2022-10-22T13:48:56;99290.34;;;19.61;67.63
11212;BME280;5663;50.864;12.096;2022-10-22T13:51:31;99286.44;;;19.65;67.63
11212;BME280;5663;50.864;12.096;2022-10-22T13:54:00;99290.75;;;19.66;67.90
11212;BME280;5663;50.864;12.096;2022-10-22T13:56:29;99296.03;;;19.66;67.25
11212;BME280;5663;50.864;12.096;2022-10-22T13:58:57;99281.44;;;19.62;67.23
11212;BME280;5663;50.864;12.096;2022-10-22T14:01:26;99291.88;;;19.64;66.79
11212;BME280;5663;50.864;12.096;2022-10-22T14:03:56;99258.63;;;19.42;66.66
11212;BME280;5663;50.864;12.096;2022-10-22T14:06:32;99254.75;;;19.36;66.04
11212;BME280;5663;50.864;12.096;2022-10-22T14:09:03;99260.44;;;19.32;66.44
11212;BME280;5663;50.864;12.096;2022-10-22T14:11:35;99289.75;;;19.48;66.49
11212;BME280;5663;50.864;12.096;2022-10-22T14:14:07;99288.34;;;19.44;66.58
11212;BME280;5663;50.864;12.096;2022-10-22T14:16:40;99293.47;;;19.36;66.60
11212;BME280;5663;50.864;12.096;2022-10-22T14:19:14;99286.94;;;19.30;66.40
11212;BME280;5663;50.864;12.096;2022-10-22T14:21:45;99269.28;;;19.21;66.85
11212;BME280;5663;50.864;12.096;2022-10-22T14:24:17;99290.28;;;19.32;66.89